Aviation Digital Data Service (ADDS)

Output produced by METARs form (0447 UTC 24 January 2019)
found at http://www.aviationweather.gov/metar/data/
 
Forecast for: GCXO (TENERIFE/LOS ROD, ES)
Text: TAF GCXO 240200Z 2403/2503 34009KT 9999 BKN018 TX16/2414Z TN11/2406Z
Forecast period: 0300 UTC 24 January 2019 to 0300 UTC 25 January 2019
Forecast type: FROM: standard forecast or significant change
Winds: from the NNW (340 degrees) at 10 MPH (9 knots; 4.6 m/s)
Visibility: 6 or more miles 10+ km)
Ceiling: 1800 feet AGL
Clouds: broken clouds at 1800 feet AGL
Weather: no significant weather forecast for this period
Text: PROB30
Forecast period: 0300 to 0900 UTC 24 January 2019
Forecast type: TEMPORARY: The following changes expected for less than half the time period
Visibility: 3 miles (5 km)
Ceiling: 1000 feet AGL
Clouds: broken clouds at 1000 feet AGL
Weather: RA  (moderate rain)
Text: TEMPO 2403/2409 4900 RA BKN010
Forecast period: 2100 UTC 24 January 2019 to 0300 UTC 25 January 2019
Forecast type: TEMPORARY: The following changes expected for less than half the time period
Visibility: 1.86 miles (2.99 km)
Ceiling: 1000 feet AGL
Clouds: broken clouds at 1000 feet AGL
Weather: DZ BCFG  (moderate drizzle, patches of fog)